KRCA/RCA METAR and TAF weather

Enter ICAO airport designator
Station Type Date Time Source
KRCA METAR 2020/09/18 06:56 UTC NOAA

KRCA 180656Z AUTO 23003KT 10SM CLR 11/08 A3027 RMK AO2 SLP244 T01140077 402320087 FZRANO $


Station Type Date Time Source
KRCA Decoded METAR 2020/09/18 06:56 UTC NOAA

Ellsworth Air Force Base, SD, United States (KRCA) 44-09N 103-06W
Sep 18, 2020 - 02:56 AM EDT / 2020.09.18 0656 UTC
Wind: from the SW (230 degrees) at 3 MPH (3 KT):0
Visibility: 10 mile(s):0
Sky conditions: clear
Temperature: 52.5 F (11.4 C)
Dew Point: 45.9 F (7.7 C)
Relative Humidity: 77%
Pressure (altimeter): 30.27 in. Hg (1025 hPa)
ob: KRCA 180656Z AUTO 23003KT 10SM CLR 11/08 A3027 RMK AO2 SLP244 T01140077 402320087 FZRANO
cycle: 7

Station Type Date Time Source
KRCA TAF 2020/09/18 03:21 UTC NOAA

TAF KRCA 180300Z 1803/1909 VRB06KT 9999 FEW100 QNH3017INS
BECMG 1815/1816 15009KT 9999 FEW100 QNH3006INS
BECMG 1901/1902 VRB06KT 9999 FEW100 QNH2997INS TX25/1822Z TN10/1811Z

Example: see airport list